Aviation Digital Data Service (ADDS)

Output produced by METARs form (2138 UTC 01 December 2021)
found at http://aviationweather.gov/metar/data/
 
KGGG 012053Z AUTO 23010KT 10SM CLR 24/12 A3004 RMK AO2 SLP168 60002 T02440122 56019
KGGG 011720Z 0118/0218 22015G20KT P6SM SKC 
     FM020000 23004KT P6SM SKC